sensor_id;sensor_type;location;lat;lon;timestamp;P1;durP1;ratioP1;P2;durP2;ratioP2
21235;SDS011;10775;42.678;26.324;2022-09-09T00:04:05;3.47;;;3.05;;
21235;SDS011;10775;42.678;26.324;2022-09-09T00:09:27;3.92;;;2.70;;
21235;SDS011;10775;42.678;26.324;2022-09-09T00:11:57;3.20;;;2.88;;
21235;SDS011;10775;42.678;26.324;2022-09-09T00:17:09;3.63;;;3.28;;
21235;SDS011;10775;42.678;26.324;2022-09-09T00:19:49;3.40;;;3.10;;
21235;SDS011;10775;42.678;26.324;2022-09-09T00:22:23;3.90;;;3.40;;
21235;SDS011;10775;42.678;26.324;2022-09-09T00:27:31;4.75;;;3.05;;
21235;SDS011;10775;42.678;26.324;2022-09-09T00:32:48;3.65;;;2.80;;
21235;SDS011;10775;42.678;26.324;2022-09-09T00:35:23;3.20;;;2.88;;
21235;SDS011;10775;42.678;26.324;2022-09-09T00:38:03;4.90;;;2.90;;
21235;SDS011;10775;42.678;26.324;2022-09-09T00:41:22;3.03;;;2.58;;
21235;SDS011;10775;42.678;26.324;2022-09-09T00:43:40;3.25;;;2.75;;
21235;SDS011;10775;42.678;26.324;2022-09-09T00:51:52;3.03;;;2.55;;
21235;SDS011;10775;42.678;26.324;2022-09-09T01:08:26;3.08;;;2.67;;
21235;SDS011;10775;42.678;26.324;2022-09-09T01:11:03;3.08;;;2.78;;
21235;SDS011;10775;42.678;26.324;2022-09-09T01:13:30;3.67;;;3.03;;
21235;SDS011;10775;42.678;26.324;2022-09-09T01:15:59;3.05;;;2.75;;
21235;SDS011;10775;42.678;26.324;2022-09-09T01:18:35;3.08;;;2.72;;
21235;SDS011;10775;42.678;26.324;2022-09-09T01:28:51;3.65;;;2.70;;
21235;SDS011;10775;42.678;26.324;2022-09-09T01:31:28;3.28;;;2.70;;
21235;SDS011;10775;42.678;26.324;2022-09-09T01:33:57;3.38;;;2.72;;
21235;SDS011;10775;42.678;26.324;2022-09-09T01:39:06;3.42;;;2.80;;
21235;SDS011;10775;42.678;26.324;2022-09-09T01:41:31;3.42;;;2.60;;
21235;SDS011;10775;42.678;26.324;2022-09-09T01:43:57;3.42;;;2.63;;
21235;SDS011;10775;42.678;26.324;2022-09-09T01:46:23;3.30;;;2.80;;
21235;SDS011;10775;42.678;26.324;2022-09-09T01:48:52;3.38;;;2.70;;
21235;SDS011;10775;42.678;26.324;2022-09-09T01:51:20;2.88;;;2.55;;
21235;SDS011;10775;42.678;26.324;2022-09-09T01:53:46;3.25;;;2.53;;
21235;SDS011;10775;42.678;26.324;2022-09-09T01:58:46;3.78;;;2.70;;
21235;SDS011;10775;42.678;26.324;2022-09-09T02:01:17;3.40;;;2.70;;
21235;SDS011;10775;42.678;26.324;2022-09-09T02:04:29;3.03;;;2.65;;
21235;SDS011;10775;42.678;26.324;2022-09-09T02:06:59;5.30;;;3.03;;
21235;SDS011;10775;42.678;26.324;2022-09-09T02:09:25;4.03;;;2.92;;
21235;SDS011;10775;42.678;26.324;2022-09-09T02:12:11;3.07;;;2.47;;
21235;SDS011;10775;42.678;26.324;2022-09-09T02:14:45;4.00;;;2.67;;
21235;SDS011;10775;42.678;26.324;2022-09-09T02:17:15;3.50;;;2.65;;
21235;SDS011;10775;42.678;26.324;2022-09-09T02:19:47;6.22;;;2.67;;
21235;SDS011;10775;42.678;26.324;2022-09-09T02:22:17;3.15;;;2.42;;
21235;SDS011;10775;42.678;26.324;2022-09-09T02:24:47;6.30;;;2.72;;
21235;SDS011;10775;42.678;26.324;2022-09-09T02:27:17;3.45;;;2.65;;
21235;SDS011;10775;42.678;26.324;2022-09-09T02:29:44;4.28;;;3.05;;
21235;SDS011;10775;42.678;26.324;2022-09-09T02:32:13;2.95;;;2.58;;
21235;SDS011;10775;42.678;26.324;2022-09-09T02:34:47;5.10;;;2.55;;
21235;SDS011;10775;42.678;26.324;2022-09-09T02:37:20;2.60;;;2.40;;
21235;SDS011;10775;42.678;26.324;2022-09-09T02:39:50;3.97;;;2.55;;
21235;SDS011;10775;42.678;26.324;2022-09-09T02:42:16;2.60;;;2.40;;
21235;SDS011;10775;42.678;26.324;2022-09-09T02:44:42;2.80;;;2.40;;
21235;SDS011;10775;42.678;26.324;2022-09-09T02:58:03;3.08;;;2.42;;
21235;SDS011;10775;42.678;26.324;2022-09-09T03:00:32;3.75;;;2.38;;
21235;SDS011;10775;42.678;26.324;2022-09-09T03:02:57;5.47;;;2.30;;
21235;SDS011;10775;42.678;26.324;2022-09-09T03:05:24;5.35;;;2.83;;
21235;SDS011;10775;42.678;26.324;2022-09-09T03:07:50;4.25;;;2.85;;
21235;SDS011;10775;42.678;26.324;2022-09-09T03:10:16;4.93;;;2.65;;
21235;SDS011;10775;42.678;26.324;2022-09-09T03:12:42;3.25;;;2.90;;
21235;SDS011;10775;42.678;26.324;2022-09-09T03:15:08;5.97;;;2.85;;
21235;SDS011;10775;42.678;26.324;2022-09-09T03:17:35;3.03;;;2.67;;
21235;SDS011;10775;42.678;26.324;2022-09-09T03:20:01;3.38;;;2.58;;
21235;SDS011;10775;42.678;26.324;2022-09-09T03:22:29;3.57;;;2.73;;
21235;SDS011;10775;42.678;26.324;2022-09-09T03:24:55;3.20;;;2.55;;
21235;SDS011;10775;42.678;26.324;2022-09-09T03:27:20;3.83;;;2.63;;
21235;SDS011;10775;42.678;26.324;2022-09-09T03:29:46;3.45;;;2.35;;
21235;SDS011;10775;42.678;26.324;2022-09-09T03:32:12;5.68;;;3.03;;
21235;SDS011;10775;42.678;26.324;2022-09-09T03:34:38;3.08;;;2.55;;
21235;SDS011;10775;42.678;26.324;2022-09-09T03:37:07;5.07;;;2.63;;
21235;SDS011;10775;42.678;26.324;2022-09-09T03:39:32;3.88;;;2.63;;
21235;SDS011;10775;42.678;26.324;2022-09-09T03:41:58;4.65;;;2.75;;
21235;SDS011;10775;42.678;26.324;2022-09-09T03:44:23;3.67;;;2.65;;
21235;SDS011;10775;42.678;26.324;2022-09-09T03:46:49;6.05;;;2.85;;
21235;SDS011;10775;42.678;26.324;2022-09-09T03:49:14;4.25;;;2.83;;
21235;SDS011;10775;42.678;26.324;2022-09-09T03:51:40;3.35;;;2.80;;
21235;SDS011;10775;42.678;26.324;2022-09-09T03:54:06;3.00;;;2.45;;
21235;SDS011;10775;42.678;26.324;2022-09-09T03:56:33;3.08;;;2.70;;
21235;SDS011;10775;42.678;26.324;2022-09-09T03:59:00;3.83;;;2.45;;
21235;SDS011;10775;42.678;26.324;2022-09-09T04:01:25;3.15;;;2.50;;
21235;SDS011;10775;42.678;26.324;2022-09-09T04:03:52;4.70;;;3.10;;
21235;SDS011;10775;42.678;26.324;2022-09-09T04:06:17;4.68;;;2.83;;
21235;SDS011;10775;42.678;26.324;2022-09-09T04:08:45;3.90;;;2.85;;
21235;SDS011;10775;42.678;26.324;2022-09-09T04:11:13;5.20;;;2.88;;
21235;SDS011;10775;42.678;26.324;2022-09-09T04:13:39;5.55;;;2.70;;
21235;SDS011;10775;42.678;26.324;2022-09-09T04:16:05;4.05;;;2.78;;
21235;SDS011;10775;42.678;26.324;2022-09-09T04:18:31;4.00;;;2.70;;
21235;SDS011;10775;42.678;26.324;2022-09-09T04:20:57;3.22;;;2.63;;
21235;SDS011;10775;42.678;26.324;2022-09-09T04:23:23;5.55;;;2.85;;
21235;SDS011;10775;42.678;26.324;2022-09-09T04:25:51;3.58;;;2.92;;
21235;SDS011;10775;42.678;26.324;2022-09-09T04:28:19;2.92;;;2.60;;
21235;SDS011;10775;42.678;26.324;2022-09-09T04:30:46;6.30;;;3.15;;
21235;SDS011;10775;42.678;26.324;2022-09-09T04:33:12;4.68;;;2.88;;
21235;SDS011;10775;42.678;26.324;2022-09-09T04:35:39;4.07;;;2.78;;
21235;SDS011;10775;42.678;26.324;2022-09-09T04:38:10;4.85;;;3.35;;
21235;SDS011;10775;42.678;26.324;2022-09-09T04:40:35;3.85;;;2.88;;
21235;SDS011;10775;42.678;26.324;2022-09-09T04:43:01;4.05;;;2.15;;
21235;SDS011;10775;42.678;26.324;2022-09-09T04:45:29;5.05;;;2.63;;
21235;SDS011;10775;42.678;26.324;2022-09-09T04:47:56;3.58;;;3.03;;
21235;SDS011;10775;42.678;26.324;2022-09-09T04:50:21;4.03;;;2.90;;
21235;SDS011;10775;42.678;26.324;2022-09-09T04:52:47;6.85;;;2.88;;
21235;SDS011;10775;42.678;26.324;2022-09-09T04:55:13;3.45;;;2.75;;
21235;SDS011;10775;42.678;26.324;2022-09-09T04:57:39;4.18;;;2.78;;
21235;SDS011;10775;42.678;26.324;2022-09-09T05:00:05;6.93;;;2.80;;
21235;SDS011;10775;42.678;26.324;2022-09-09T05:02:32;3.40;;;2.55;;
21235;SDS011;10775;42.678;26.324;2022-09-09T05:04:58;5.55;;;2.70;;
21235;SDS011;10775;42.678;26.324;2022-09-09T05:07:24;3.08;;;2.60;;
21235;SDS011;10775;42.678;26.324;2022-09-09T05:09:52;4.05;;;2.90;;
21235;SDS011;10775;42.678;26.324;2022-09-09T05:12:17;4.85;;;3.03;;
21235;SDS011;10775;42.678;26.324;2022-09-09T05:14:43;5.53;;;3.30;;
21235;SDS011;10775;42.678;26.324;2022-09-09T05:17:09;4.30;;;2.20;;
21235;SDS011;10775;42.678;26.324;2022-09-09T05:19:35;5.38;;;3.10;;
21235;SDS011;10775;42.678;26.324;2022-09-09T05:22:01;3.53;;;2.38;;
21235;SDS011;10775;42.678;26.324;2022-09-09T05:24:27;4.18;;;2.70;;
21235;SDS011;10775;42.678;26.324;2022-09-09T05:26:52;4.88;;;3.05;;
21235;SDS011;10775;42.678;26.324;2022-09-09T05:29:18;4.13;;;2.70;;
21235;SDS011;10775;42.678;26.324;2022-09-09T05:31:46;2.67;;;2.17;;
21235;SDS011;10775;42.678;26.324;2022-09-09T05:34:12;8.77;;;5.85;;
21235;SDS011;10775;42.678;26.324;2022-09-09T05:36:37;6.25;;;4.25;;
21235;SDS011;10775;42.678;26.324;2022-09-09T05:39:03;3.55;;;2.70;;
21235;SDS011;10775;42.678;26.324;2022-09-09T05:41:29;5.43;;;4.30;;
21235;SDS011;10775;42.678;26.324;2022-09-09T05:43:55;5.97;;;3.22;;
21235;SDS011;10775;42.678;26.324;2022-09-09T05:46:21;3.85;;;3.22;;
21235;SDS011;10775;42.678;26.324;2022-09-09T05:48:49;4.07;;;3.40;;
21235;SDS011;10775;42.678;26.324;2022-09-09T05:51:18;4.88;;;2.85;;
21235;SDS011;10775;42.678;26.324;2022-09-09T05:53:49;5.10;;;2.85;;
21235;SDS011;10775;42.678;26.324;2022-09-09T05:56:17;7.72;;;3.03;;
21235;SDS011;10775;42.678;26.324;2022-09-09T05:58:44;5.85;;;2.85;;
21235;SDS011;10775;42.678;26.324;2022-09-09T06:03:56;4.60;;;3.35;;
21235;SDS011;10775;42.678;26.324;2022-09-09T06:06:23;4.22;;;3.10;;
21235;SDS011;10775;42.678;26.324;2022-09-09T06:08:51;4.28;;;2.90;;
21235;SDS011;10775;42.678;26.324;2022-09-09T06:11:20;2.53;;;2.33;;
21235;SDS011;10775;42.678;26.324;2022-09-09T06:13:47;4.70;;;2.50;;
21235;SDS011;10775;42.678;26.324;2022-09-09T06:16:17;3.07;;;2.07;;
21235;SDS011;10775;42.678;26.324;2022-09-09T06:18:44;4.35;;;2.20;;
21235;SDS011;10775;42.678;26.324;2022-09-09T06:21:20;3.00;;;2.70;;
21235;SDS011;10775;42.678;26.324;2022-09-09T06:23:48;3.05;;;2.47;;
21235;SDS011;10775;42.678;26.324;2022-09-09T06:26:19;7.05;;;5.00;;
21235;SDS011;10775;42.678;26.324;2022-09-09T06:28:48;3.10;;;2.58;;
21235;SDS011;10775;42.678;26.324;2022-09-09T06:31:16;3.72;;;2.35;;
21235;SDS011;10775;42.678;26.324;2022-09-09T06:33:46;5.72;;;3.55;;
21235;SDS011;10775;42.678;26.324;2022-09-09T06:36:13;4.22;;;2.72;;
21235;SDS011;10775;42.678;26.324;2022-09-09T06:38:41;5.57;;;2.80;;
21235;SDS011;10775;42.678;26.324;2022-09-09T06:41:08;4.47;;;3.28;;
21235;SDS011;10775;42.678;26.324;2022-09-09T06:43:34;8.07;;;3.10;;
21235;SDS011;10775;42.678;26.324;2022-09-09T06:48:31;15.80;;;4.00;;
21235;SDS011;10775;42.678;26.324;2022-09-09T06:51:06;6.88;;;3.92;;
21235;SDS011;10775;42.678;26.324;2022-09-09T06:53:35;11.52;;;4.28;;
21235;SDS011;10775;42.678;26.324;2022-09-09T06:56:02;8.82;;;3.30;;
21235;SDS011;10775;42.678;26.324;2022-09-09T06:58:42;4.55;;;2.72;;
21235;SDS011;10775;42.678;26.324;2022-09-09T07:01:10;6.63;;;3.85;;
21235;SDS011;10775;42.678;26.324;2022-09-09T07:03:48;11.90;;;6.15;;
21235;SDS011;10775;42.678;26.324;2022-09-09T07:06:19;9.43;;;3.38;;
21235;SDS011;10775;42.678;26.324;2022-09-09T07:08:52;8.68;;;2.72;;
21235;SDS011;10775;42.678;26.324;2022-09-09T07:11:20;7.28;;;3.50;;
21235;SDS011;10775;42.678;26.324;2022-09-09T07:13:48;4.40;;;3.08;;
21235;SDS011;10775;42.678;26.324;2022-09-09T07:16:15;11.73;;;4.38;;
21235;SDS011;10775;42.678;26.324;2022-09-09T07:18:42;14.13;;;8.18;;
21235;SDS011;10775;42.678;26.324;2022-09-09T07:21:12;3.75;;;2.97;;
21235;SDS011;10775;42.678;26.324;2022-09-09T07:23:40;18.42;;;6.07;;
21235;SDS011;10775;42.678;26.324;2022-09-09T07:26:16;4.60;;;3.45;;
21235;SDS011;10775;42.678;26.324;2022-09-09T07:28:44;7.40;;;3.83;;
21235;SDS011;10775;42.678;26.324;2022-09-09T07:31:17;14.07;;;4.10;;
21235;SDS011;10775;42.678;26.324;2022-09-09T07:33:45;4.68;;;3.30;;
21235;SDS011;10775;42.678;26.324;2022-09-09T07:38:49;5.75;;;3.42;;
21235;SDS011;10775;42.678;26.324;2022-09-09T07:41:21;8.55;;;3.95;;
21235;SDS011;10775;42.678;26.324;2022-09-09T07:43:51;5.57;;;3.50;;
21235;SDS011;10775;42.678;26.324;2022-09-09T07:46:21;8.73;;;3.97;;
21235;SDS011;10775;42.678;26.324;2022-09-09T07:48:49;9.60;;;4.60;;
21235;SDS011;10775;42.678;26.324;2022-09-09T07:51:17;6.00;;;3.70;;
21235;SDS011;10775;42.678;26.324;2022-09-09T07:53:46;21.80;;;8.93;;
21235;SDS011;10775;42.678;26.324;2022-09-09T07:56:14;6.95;;;4.28;;
21235;SDS011;10775;42.678;26.324;2022-09-09T07:58:46;10.00;;;4.20;;
21235;SDS011;10775;42.678;26.324;2022-09-09T08:01:17;7.32;;;4.00;;
21235;SDS011;10775;42.678;26.324;2022-09-09T08:03:57;7.63;;;4.07;;
21235;SDS011;10775;42.678;26.324;2022-09-09T08:06:25;9.07;;;3.30;;
21235;SDS011;10775;42.678;26.324;2022-09-09T08:08:52;12.27;;;4.88;;
21235;SDS011;10775;42.678;26.324;2022-09-09T08:11:19;10.90;;;5.20;;
21235;SDS011;10775;42.678;26.324;2022-09-09T08:13:46;5.13;;;3.47;;
21235;SDS011;10775;42.678;26.324;2022-09-09T08:16:13;14.10;;;5.88;;
21235;SDS011;10775;42.678;26.324;2022-09-09T08:18:40;9.30;;;3.70;;
21235;SDS011;10775;42.678;26.324;2022-09-09T08:23:43;12.23;;;5.22;;
21235;SDS011;10775;42.678;26.324;2022-09-09T08:26:20;8.52;;;4.32;;
21235;SDS011;10775;42.678;26.324;2022-09-09T08:28:51;4.97;;;3.38;;
21235;SDS011;10775;42.678;26.324;2022-09-09T08:31:19;9.35;;;5.10;;
21235;SDS011;10775;42.678;26.324;2022-09-09T08:33:56;10.75;;;5.40;;
21235;SDS011;10775;42.678;26.324;2022-09-09T08:36:25;11.40;;;4.40;;
21235;SDS011;10775;42.678;26.324;2022-09-09T08:38:53;6.13;;;4.32;;
21235;SDS011;10775;42.678;26.324;2022-09-09T08:44:13;12.57;;;5.38;;
21235;SDS011;10775;42.678;26.324;2022-09-09T08:46:52;11.07;;;5.80;;
21235;SDS011;10775;42.678;26.324;2022-09-09T08:52:25;5.95;;;4.10;;
21235;SDS011;10775;42.678;26.324;2022-09-09T08:54:52;12.68;;;4.88;;
21235;SDS011;10775;42.678;26.324;2022-09-09T08:57:23;11.52;;;5.80;;
21235;SDS011;10775;42.678;26.324;2022-09-09T08:59:53;8.68;;;4.20;;
21235;SDS011;10775;42.678;26.324;2022-09-09T09:02:31;7.80;;;5.25;;
21235;SDS011;10775;42.678;26.324;2022-09-09T09:05:12;7.22;;;4.80;;
21235;SDS011;10775;42.678;26.324;2022-09-09T09:08:08;13.38;;;5.60;;
21235;SDS011;10775;42.678;26.324;2022-09-09T09:11:03;9.32;;;4.63;;
21235;SDS011;10775;42.678;26.324;2022-09-09T09:16:00;8.68;;;5.32;;
21235;SDS011;10775;42.678;26.324;2022-09-09T09:18:48;6.67;;;4.60;;
21235;SDS011;10775;42.678;26.324;2022-09-09T09:21:19;15.70;;;7.53;;
21235;SDS011;10775;42.678;26.324;2022-09-09T09:26:19;6.90;;;5.20;;
21235;SDS011;10775;42.678;26.324;2022-09-09T09:28:47;6.50;;;4.88;;
21235;SDS011;10775;42.678;26.324;2022-09-09T09:31:12;7.60;;;5.05;;
21235;SDS011;10775;42.678;26.324;2022-09-09T09:33:48;5.07;;;4.18;;
21235;SDS011;10775;42.678;26.324;2022-09-09T09:36:16;7.40;;;5.68;;
21235;SDS011;10775;42.678;26.324;2022-09-09T09:39:01;7.18;;;5.25;;
21235;SDS011;10775;42.678;26.324;2022-09-09T09:41:38;7.68;;;5.60;;
21235;SDS011;10775;42.678;26.324;2022-09-09T09:44:05;9.70;;;7.38;;
21235;SDS011;10775;42.678;26.324;2022-09-09T09:46:52;5.75;;;5.18;;
21235;SDS011;10775;42.678;26.324;2022-09-09T09:49:18;7.15;;;5.68;;
21235;SDS011;10775;42.678;26.324;2022-09-09T09:51:44;6.32;;;4.93;;
21235;SDS011;10775;42.678;26.324;2022-09-09T09:56:40;7.78;;;4.43;;
21235;SDS011;10775;42.678;26.324;2022-09-09T09:59:21;5.32;;;4.07;;
21235;SDS011;10775;42.678;26.324;2022-09-09T10:02:06;8.65;;;5.00;;
21235;SDS011;10775;42.678;26.324;2022-09-09T10:04:38;6.35;;;4.55;;
21235;SDS011;10775;42.678;26.324;2022-09-09T10:07:10;6.10;;;5.20;;
21235;SDS011;10775;42.678;26.324;2022-09-09T10:09:55;6.88;;;5.90;;
21235;SDS011;10775;42.678;26.324;2022-09-09T10:15:02;7.85;;;5.53;;
21235;SDS011;10775;42.678;26.324;2022-09-09T10:20:36;8.65;;;4.97;;
21235;SDS011;10775;42.678;26.324;2022-09-09T10:36:58;5.75;;;4.90;;
21235;SDS011;10775;42.678;26.324;2022-09-09T10:39:35;10.02;;;5.82;;
21235;SDS011;10775;42.678;26.324;2022-09-09T10:57:02;4.75;;;4.25;;
21235;SDS011;10775;42.678;26.324;2022-09-09T10:59:36;5.90;;;5.30;;
21235;SDS011;10775;42.678;26.324;2022-09-09T11:04:48;7.70;;;5.40;;
21235;SDS011;10775;42.678;26.324;2022-09-09T11:07:40;6.40;;;5.75;;
21235;SDS011;10775;42.678;26.324;2022-09-09T11:13:03;7.05;;;5.50;;
21235;SDS011;10775;42.678;26.324;2022-09-09T11:15:41;5.55;;;5.05;;
21235;SDS011;10775;42.678;26.324;2022-09-09T11:18:11;8.90;;;4.50;;
21235;SDS011;10775;42.678;26.324;2022-09-09T11:20:43;9.23;;;5.53;;
21235;SDS011;10775;42.678;26.324;2022-09-09T11:23:52;7.10;;;4.50;;
21235;SDS011;10775;42.678;26.324;2022-09-09T11:26:10;5.72;;;4.88;;
21235;SDS011;10775;42.678;26.324;2022-09-09T11:31:21;5.93;;;5.43;;
21235;SDS011;10775;42.678;26.324;2022-09-09T11:37:08;6.05;;;5.07;;
21235;SDS011;10775;42.678;26.324;2022-09-09T11:43:04;9.23;;;6.53;;
21235;SDS011;10775;42.678;26.324;2022-09-09T11:45:38;6.65;;;5.97;;
21235;SDS011;10775;42.678;26.324;2022-09-09T11:48:21;6.90;;;5.83;;
21235;SDS011;10775;42.678;26.324;2022-09-09T11:50:57;5.93;;;4.60;;
21235;SDS011;10775;42.678;26.324;2022-09-09T11:53:30;7.40;;;4.88;;
21235;SDS011;10775;42.678;26.324;2022-09-09T11:56:22;4.80;;;4.35;;
21235;SDS011;10775;42.678;26.324;2022-09-09T11:59:27;6.57;;;4.75;;
21235;SDS011;10775;42.678;26.324;2022-09-09T12:01:58;6.75;;;5.68;;
21235;SDS011;10775;42.678;26.324;2022-09-09T12:12:34;5.20;;;4.70;;
21235;SDS011;10775;42.678;26.324;2022-09-09T12:17:41;7.00;;;5.45;;
21235;SDS011;10775;42.678;26.324;2022-09-09T12:20:13;7.07;;;6.07;;
21235;SDS011;10775;42.678;26.324;2022-09-09T12:33:42;8.35;;;5.15;;
21235;SDS011;10775;42.678;26.324;2022-09-09T12:36:29;5.80;;;4.43;;
21235;SDS011;10775;42.678;26.324;2022-09-09T12:38:58;7.13;;;5.18;;
21235;SDS011;10775;42.678;26.324;2022-09-09T12:41:35;6.80;;;4.55;;
21235;SDS011;10775;42.678;26.324;2022-09-09T12:44:10;6.60;;;5.15;;
21235;SDS011;10775;42.678;26.324;2022-09-09T12:46:38;4.57;;;3.80;;
21235;SDS011;10775;42.678;26.324;2022-09-09T12:52:00;5.72;;;5.20;;
21235;SDS011;10775;42.678;26.324;2022-09-09T12:54:30;4.65;;;4.15;;
21235;SDS011;10775;42.678;26.324;2022-09-09T12:56:58;5.28;;;4.78;;
21235;SDS011;10775;42.678;26.324;2022-09-09T12:59:25;6.30;;;4.95;;
21235;SDS011;10775;42.678;26.324;2022-09-09T13:01:59;5.55;;;4.65;;
21235;SDS011;10775;42.678;26.324;2022-09-09T13:04:24;5.20;;;4.70;;
21235;SDS011;10775;42.678;26.324;2022-09-09T13:06:51;6.28;;;4.90;;
21235;SDS011;10775;42.678;26.324;2022-09-09T13:09:20;6.50;;;4.70;;
21235;SDS011;10775;42.678;26.324;2022-09-09T13:11:53;6.30;;;4.82;;
21235;SDS011;10775;42.678;26.324;2022-09-09T13:14:28;5.10;;;4.57;;
21235;SDS011;10775;42.678;26.324;2022-09-09T13:17:00;6.32;;;4.70;;
21235;SDS011;10775;42.678;26.324;2022-09-09T13:19:37;5.23;;;4.50;;
21235;SDS011;10775;42.678;26.324;2022-09-09T13:24:58;6.03;;;4.55;;
21235;SDS011;10775;42.678;26.324;2022-09-09T13:28:04;5.40;;;4.75;;
21235;SDS011;10775;42.678;26.324;2022-09-09T13:30:34;5.03;;;4.22;;
21235;SDS011;10775;42.678;26.324;2022-09-09T13:33:06;7.30;;;4.78;;
21235;SDS011;10775;42.678;26.324;2022-09-09T13:38:19;6.13;;;3.92;;
21235;SDS011;10775;42.678;26.324;2022-09-09T13:41:05;6.53;;;5.10;;
21235;SDS011;10775;42.678;26.324;2022-09-09T13:43:36;5.40;;;4.25;;
21235;SDS011;10775;42.678;26.324;2022-09-09T13:46:28;10.45;;;5.88;;
21235;SDS011;10775;42.678;26.324;2022-09-09T13:51:44;5.55;;;4.57;;
21235;SDS011;10775;42.678;26.324;2022-09-09T13:54:15;5.47;;;4.88;;
21235;SDS011;10775;42.678;26.324;2022-09-09T13:56:42;5.53;;;5.03;;
21235;SDS011;10775;42.678;26.324;2022-09-09T13:59:10;9.00;;;5.90;;
21235;SDS011;10775;42.678;26.324;2022-09-09T14:01:40;13.88;;;5.38;;
21235;SDS011;10775;42.678;26.324;2022-09-09T14:04:06;10.77;;;7.22;;
21235;SDS011;10775;42.678;26.324;2022-09-09T14:06:34;5.75;;;4.93;;
21235;SDS011;10775;42.678;26.324;2022-09-09T14:09:03;9.23;;;5.53;;
21235;SDS011;10775;42.678;26.324;2022-09-09T14:11:30;7.88;;;5.40;;
21235;SDS011;10775;42.678;26.324;2022-09-09T14:13:56;10.57;;;5.20;;
21235;SDS011;10775;42.678;26.324;2022-09-09T14:16:21;8.57;;;5.10;;
21235;SDS011;10775;42.678;26.324;2022-09-09T14:18:47;9.82;;;4.28;;
21235;SDS011;10775;42.678;26.324;2022-09-09T14:21:13;13.02;;;6.15;;
21235;SDS011;10775;42.678;26.324;2022-09-09T14:23:40;12.15;;;6.15;;
21235;SDS011;10775;42.678;26.324;2022-09-09T14:26:06;6.60;;;5.47;;
21235;SDS011;10775;42.678;26.324;2022-09-09T14:28:33;6.43;;;5.60;;
21235;SDS011;10775;42.678;26.324;2022-09-09T14:30:59;5.60;;;4.93;;
21235;SDS011;10775;42.678;26.324;2022-09-09T14:33:26;7.32;;;5.10;;
21235;SDS011;10775;42.678;26.324;2022-09-09T14:35:57;12.55;;;5.93;;
21235;SDS011;10775;42.678;26.324;2022-09-09T14:38:25;6.80;;;5.65;;
21235;SDS011;10775;42.678;26.324;2022-09-09T14:40:53;7.15;;;5.03;;
21235;SDS011;10775;42.678;26.324;2022-09-09T14:43:19;5.53;;;4.80;;
21235;SDS011;10775;42.678;26.324;2022-09-09T14:45:45;6.32;;;4.40;;
21235;SDS011;10775;42.678;26.324;2022-09-09T14:48:13;8.30;;;4.70;;
21235;SDS011;10775;42.678;26.324;2022-09-09T14:50:39;12.30;;;5.18;;
21235;SDS011;10775;42.678;26.324;2022-09-09T14:53:06;7.18;;;4.90;;
21235;SDS011;10775;42.678;26.324;2022-09-09T14:55:33;6.22;;;5.38;;
21235;SDS011;10775;42.678;26.324;2022-09-09T14:57:59;5.68;;;5.18;;
21235;SDS011;10775;42.678;26.324;2022-09-09T15:00:25;6.95;;;5.55;;
21235;SDS011;10775;42.678;26.324;2022-09-09T15:02:54;9.65;;;5.22;;
21235;SDS011;10775;42.678;26.324;2022-09-09T15:05:20;11.63;;;6.20;;
21235;SDS011;10775;42.678;26.324;2022-09-09T15:07:46;10.77;;;6.18;;
21235;SDS011;10775;42.678;26.324;2022-09-09T15:10:13;10.45;;;5.60;;
21235;SDS011;10775;42.678;26.324;2022-09-09T15:12:38;7.95;;;5.38;;
21235;SDS011;10775;42.678;26.324;2022-09-09T15:15:04;7.25;;;6.55;;
21235;SDS011;10775;42.678;26.324;2022-09-09T15:17:30;5.95;;;5.32;;
21235;SDS011;10775;42.678;26.324;2022-09-09T15:19:56;5.60;;;4.88;;
21235;SDS011;10775;42.678;26.324;2022-09-09T15:22:22;6.18;;;4.40;;
21235;SDS011;10775;42.678;26.324;2022-09-09T15:24:49;8.57;;;5.80;;
21235;SDS011;10775;42.678;26.324;2022-09-09T15:27:15;13.30;;;12.05;;
21235;SDS011;10775;42.678;26.324;2022-09-09T15:29:40;7.65;;;5.68;;
21235;SDS011;10775;42.678;26.324;2022-09-09T15:32:06;7.35;;;4.60;;
21235;SDS011;10775;42.678;26.324;2022-09-09T15:34:32;5.72;;;4.30;;
21235;SDS011;10775;42.678;26.324;2022-09-09T15:36:58;5.90;;;4.93;;
21235;SDS011;10775;42.678;26.324;2022-09-09T15:39:25;6.10;;;4.50;;
21235;SDS011;10775;42.678;26.324;2022-09-09T15:41:51;8.50;;;5.22;;
21235;SDS011;10775;42.678;26.324;2022-09-09T15:44:16;6.25;;;4.53;;
21235;SDS011;10775;42.678;26.324;2022-09-09T15:46:45;9.73;;;4.90;;
21235;SDS011;10775;42.678;26.324;2022-09-09T15:49:18;7.60;;;4.75;;
21235;SDS011;10775;42.678;26.324;2022-09-09T15:51:55;5.68;;;4.60;;
21235;SDS011;10775;42.678;26.324;2022-09-09T15:54:23;6.35;;;4.47;;
21235;SDS011;10775;42.678;26.324;2022-09-09T15:56:51;5.57;;;4.90;;
21235;SDS011;10775;42.678;26.324;2022-09-09T15:59:20;8.63;;;4.35;;
21235;SDS011;10775;42.678;26.324;2022-09-09T16:01:47;4.72;;;4.22;;
21235;SDS011;10775;42.678;26.324;2022-09-09T16:04:16;5.25;;;4.43;;
21235;SDS011;10775;42.678;26.324;2022-09-09T16:06:48;8.50;;;5.88;;
21235;SDS011;10775;42.678;26.324;2022-09-09T16:09:18;8.30;;;4.30;;
21235;SDS011;10775;42.678;26.324;2022-09-09T16:11:44;5.43;;;3.90;;
21235;SDS011;10775;42.678;26.324;2022-09-09T16:14:10;5.80;;;3.92;;
21235;SDS011;10775;42.678;26.324;2022-09-09T16:16:36;3.83;;;3.28;;
21235;SDS011;10775;42.678;26.324;2022-09-09T16:19:05;7.78;;;5.18;;
21235;SDS011;10775;42.678;26.324;2022-09-09T16:21:36;8.65;;;6.25;;
21235;SDS011;10775;42.678;26.324;2022-09-09T16:24:06;7.38;;;5.10;;
21235;SDS011;10775;42.678;26.324;2022-09-09T16:26:34;9.15;;;4.60;;
21235;SDS011;10775;42.678;26.324;2022-09-09T16:29:01;12.52;;;4.22;;
21235;SDS011;10775;42.678;26.324;2022-09-09T16:31:28;7.75;;;4.07;;
21235;SDS011;10775;42.678;26.324;2022-09-09T16:33:54;6.70;;;4.30;;
21235;SDS011;10775;42.678;26.324;2022-09-09T16:36:24;7.63;;;4.60;;
21235;SDS011;10775;42.678;26.324;2022-09-09T16:38:56;7.80;;;5.40;;
21235;SDS011;10775;42.678;26.324;2022-09-09T16:41:27;10.98;;;5.65;;
21235;SDS011;10775;42.678;26.324;2022-09-09T16:43:56;6.95;;;4.20;;
21235;SDS011;10775;42.678;26.324;2022-09-09T16:46:23;7.20;;;4.40;;
21235;SDS011;10775;42.678;26.324;2022-09-09T16:48:49;6.03;;;3.78;;
21235;SDS011;10775;42.678;26.324;2022-09-09T16:51:19;5.20;;;3.45;;
21235;SDS011;10775;42.678;26.324;2022-09-09T16:53:51;6.03;;;3.88;;
21235;SDS011;10775;42.678;26.324;2022-09-09T16:56:19;8.00;;;4.25;;
21235;SDS011;10775;42.678;26.324;2022-09-09T16:58:50;6.57;;;4.85;;
21235;SDS011;10775;42.678;26.324;2022-09-09T17:01:17;5.93;;;3.88;;
21235;SDS011;10775;42.678;26.324;2022-09-09T17:03:43;5.15;;;3.35;;
21235;SDS011;10775;42.678;26.324;2022-09-09T17:06:10;3.70;;;3.30;;
21235;SDS011;10775;42.678;26.324;2022-09-09T17:08:37;5.28;;;3.38;;
21235;SDS011;10775;42.678;26.324;2022-09-09T17:11:10;3.90;;;3.03;;
21235;SDS011;10775;42.678;26.324;2022-09-09T17:13:43;4.80;;;3.15;;
21235;SDS011;10775;42.678;26.324;2022-09-09T17:16:10;4.50;;;3.90;;
21235;SDS011;10775;42.678;26.324;2022-09-09T17:18:37;6.82;;;3.80;;
21235;SDS011;10775;42.678;26.324;2022-09-09T17:21:04;4.03;;;3.20;;
21235;SDS011;10775;42.678;26.324;2022-09-09T17:23:32;5.10;;;3.13;;
21235;SDS011;10775;42.678;26.324;2022-09-09T17:25:59;4.07;;;2.70;;
21235;SDS011;10775;42.678;26.324;2022-09-09T17:28:25;3.10;;;2.67;;
21235;SDS011;10775;42.678;26.324;2022-09-09T17:30:56;3.60;;;2.92;;
21235;SDS011;10775;42.678;26.324;2022-09-09T17:33:26;3.42;;;3.13;;